sensor_id;sensor_type;location;lat;lon;timestamp;P1;durP1;ratioP1;P2;durP2;ratioP2
6007;SDS011;3032;49.484;11.112;2023-03-31T00:01:25;9.70;;;2.37;;
6007;SDS011;3032;49.484;11.112;2023-03-31T00:03:51;5.25;;;2.15;;
6007;SDS011;3032;49.484;11.112;2023-03-31T00:06:25;3.90;;;2.28;;
6007;SDS011;3032;49.484;11.112;2023-03-31T00:08:52;4.93;;;2.40;;
6007;SDS011;3032;49.484;11.112;2023-03-31T00:11:18;4.80;;;2.17;;
6007;SDS011;3032;49.484;11.112;2023-03-31T00:13:44;4.72;;;2.20;;
6007;SDS011;3032;49.484;11.112;2023-03-31T00:16:10;4.93;;;2.57;;
6007;SDS011;3032;49.484;11.112;2023-03-31T00:18:36;6.97;;;2.57;;
6007;SDS011;3032;49.484;11.112;2023-03-31T00:21:08;3.38;;;2.33;;
6007;SDS011;3032;49.484;11.112;2023-03-31T00:23:49;5.05;;;2.00;;
6007;SDS011;3032;49.484;11.112;2023-03-31T00:26:19;3.53;;;2.58;;
6007;SDS011;3032;49.484;11.112;2023-03-31T00:28:46;4.30;;;2.10;;
6007;SDS011;3032;49.484;11.112;2023-03-31T00:31:12;4.87;;;2.47;;
6007;SDS011;3032;49.484;11.112;2023-03-31T00:33:37;4.03;;;2.33;;
6007;SDS011;3032;49.484;11.112;2023-03-31T00:36:03;8.40;;;2.57;;
6007;SDS011;3032;49.484;11.112;2023-03-31T00:38:30;2.65;;;1.90;;
6007;SDS011;3032;49.484;11.112;2023-03-31T00:40:56;4.65;;;2.10;;
6007;SDS011;3032;49.484;11.112;2023-03-31T00:43:26;7.10;;;2.70;;
6007;SDS011;3032;49.484;11.112;2023-03-31T00:48:52;4.88;;;2.50;;
6007;SDS011;3032;49.484;11.112;2023-03-31T00:51:23;5.15;;;2.33;;
6007;SDS011;3032;49.484;11.112;2023-03-31T00:53:53;6.35;;;2.45;;
6007;SDS011;3032;49.484;11.112;2023-03-31T00:56:27;4.93;;;2.78;;
6007;SDS011;3032;49.484;11.112;2023-03-31T00:58:56;6.80;;;2.72;;
6007;SDS011;3032;49.484;11.112;2023-03-31T01:01:25;3.80;;;2.40;;
6007;SDS011;3032;49.484;11.112;2023-03-31T01:03:51;6.43;;;2.43;;
6007;SDS011;3032;49.484;11.112;2023-03-31T01:06:17;11.90;;;2.58;;
6007;SDS011;3032;49.484;11.112;2023-03-31T01:08:47;5.40;;;2.90;;
6007;SDS011;3032;49.484;11.112;2023-03-31T01:11:16;5.90;;;2.95;;
6007;SDS011;3032;49.484;11.112;2023-03-31T01:13:44;3.10;;;2.10;;
6007;SDS011;3032;49.484;11.112;2023-03-31T01:16:14;3.85;;;2.40;;
6007;SDS011;3032;49.484;11.112;2023-03-31T01:18:40;4.60;;;2.38;;
6007;SDS011;3032;49.484;11.112;2023-03-31T01:47:15;7.28;;;2.80;;
6007;SDS011;3032;49.484;11.112;2023-03-31T01:52:50;10.52;;;3.78;;
6007;SDS011;3032;49.484;11.112;2023-03-31T02:00:31;13.27;;;3.78;;
6007;SDS011;3032;49.484;11.112;2023-03-31T02:03:03;10.52;;;2.70;;
6007;SDS011;3032;49.484;11.112;2023-03-31T02:05:40;7.10;;;2.80;;
6007;SDS011;3032;49.484;11.112;2023-03-31T02:08:21;5.60;;;2.50;;
6007;SDS011;3032;49.484;11.112;2023-03-31T02:10:51;6.47;;;2.50;;
6007;SDS011;3032;49.484;11.112;2023-03-31T02:13:18;7.60;;;2.70;;
6007;SDS011;3032;49.484;11.112;2023-03-31T02:15:47;2.97;;;1.90;;
6007;SDS011;3032;49.484;11.112;2023-03-31T02:18:17;3.30;;;2.33;;
6007;SDS011;3032;49.484;11.112;2023-03-31T02:20:50;6.18;;;2.47;;
6007;SDS011;3032;49.484;11.112;2023-03-31T02:23:19;4.47;;;2.00;;
6007;SDS011;3032;49.484;11.112;2023-03-31T02:25:51;3.55;;;2.08;;
6007;SDS011;3032;49.484;11.112;2023-03-31T02:28:23;6.93;;;2.00;;
6007;SDS011;3032;49.484;11.112;2023-03-31T02:30:53;5.55;;;2.08;;
6007;SDS011;3032;49.484;11.112;2023-03-31T02:33:43;4.72;;;2.50;;
6007;SDS011;3032;49.484;11.112;2023-03-31T02:36:08;6.10;;;2.53;;
6007;SDS011;3032;49.484;11.112;2023-03-31T02:38:38;7.37;;;2.23;;
6007;SDS011;3032;49.484;11.112;2023-03-31T02:41:10;5.60;;;2.30;;
6007;SDS011;3032;49.484;11.112;2023-03-31T02:43:37;8.63;;;2.00;;
6007;SDS011;3032;49.484;11.112;2023-03-31T02:46:02;2.73;;;1.40;;
6007;SDS011;3032;49.484;11.112;2023-03-31T02:48:29;6.47;;;1.90;;
6007;SDS011;3032;49.484;11.112;2023-03-31T03:07:46;4.13;;;2.03;;
6007;SDS011;3032;49.484;11.112;2023-03-31T03:13:21;4.20;;;1.60;;
6007;SDS011;3032;49.484;11.112;2023-03-31T03:15:50;4.13;;;1.92;;
6007;SDS011;3032;49.484;11.112;2023-03-31T03:18:22;10.13;;;2.30;;
6007;SDS011;3032;49.484;11.112;2023-03-31T03:20:48;3.73;;;1.90;;
6007;SDS011;3032;49.484;11.112;2023-03-31T03:23:15;3.45;;;1.92;;
6007;SDS011;3032;49.484;11.112;2023-03-31T03:25:41;2.72;;;2.03;;
6007;SDS011;3032;49.484;11.112;2023-03-31T03:28:08;6.25;;;2.00;;
6007;SDS011;3032;49.484;11.112;2023-03-31T03:30:34;4.07;;;2.40;;
6007;SDS011;3032;49.484;11.112;2023-03-31T03:32:59;3.60;;;1.73;;
6007;SDS011;3032;49.484;11.112;2023-03-31T03:35:25;7.60;;;2.10;;
6007;SDS011;3032;49.484;11.112;2023-03-31T03:37:51;4.53;;;2.03;;
6007;SDS011;3032;49.484;11.112;2023-03-31T03:40:16;5.60;;;2.40;;
6007;SDS011;3032;49.484;11.112;2023-03-31T03:42:42;3.13;;;2.23;;
6007;SDS011;3032;49.484;11.112;2023-03-31T03:45:08;5.27;;;1.80;;
6007;SDS011;3032;49.484;11.112;2023-03-31T03:47:33;3.67;;;2.00;;
6007;SDS011;3032;49.484;11.112;2023-03-31T03:50:00;8.50;;;2.33;;
6007;SDS011;3032;49.484;11.112;2023-03-31T03:52:26;2.30;;;2.10;;
6007;SDS011;3032;49.484;11.112;2023-03-31T03:54:52;5.10;;;2.10;;
6007;SDS011;3032;49.484;11.112;2023-03-31T03:57:17;3.93;;;1.63;;
6007;SDS011;3032;49.484;11.112;2023-03-31T03:59:43;3.30;;;2.20;;
6007;SDS011;3032;49.484;11.112;2023-03-31T04:02:08;6.47;;;2.37;;
6007;SDS011;3032;49.484;11.112;2023-03-31T04:04:34;3.53;;;1.73;;
6007;SDS011;3032;49.484;11.112;2023-03-31T04:06:59;4.03;;;2.00;;
6007;SDS011;3032;49.484;11.112;2023-03-31T04:09:25;5.17;;;1.87;;
6007;SDS011;3032;49.484;11.112;2023-03-31T04:11:50;7.20;;;2.30;;
6007;SDS011;3032;49.484;11.112;2023-03-31T04:14:16;4.73;;;2.13;;
6007;SDS011;3032;49.484;11.112;2023-03-31T04:16:41;7.33;;;2.40;;
6007;SDS011;3032;49.484;11.112;2023-03-31T04:19:10;3.05;;;2.00;;
6007;SDS011;3032;49.484;11.112;2023-03-31T04:21:41;4.82;;;2.03;;
6007;SDS011;3032;49.484;11.112;2023-03-31T04:24:09;3.55;;;2.10;;
6007;SDS011;3032;49.484;11.112;2023-03-31T04:26:39;3.10;;;2.10;;
6007;SDS011;3032;49.484;11.112;2023-03-31T04:29:09;6.18;;;2.65;;
6007;SDS011;3032;49.484;11.112;2023-03-31T04:31:36;8.00;;;2.33;;
6007;SDS011;3032;49.484;11.112;2023-03-31T04:34:03;6.87;;;2.60;;
6007;SDS011;3032;49.484;11.112;2023-03-31T04:36:31;3.90;;;2.60;;
6007;SDS011;3032;49.484;11.112;2023-03-31T04:38:57;9.30;;;2.58;;
6007;SDS011;3032;49.484;11.112;2023-03-31T04:41:25;4.38;;;3.00;;
6007;SDS011;3032;49.484;11.112;2023-03-31T04:43:51;6.30;;;2.97;;
6007;SDS011;3032;49.484;11.112;2023-03-31T04:46:17;7.27;;;2.80;;
6007;SDS011;3032;49.484;11.112;2023-03-31T04:48:43;3.30;;;2.20;;
6007;SDS011;3032;49.484;11.112;2023-03-31T04:51:08;4.33;;;2.57;;
6007;SDS011;3032;49.484;11.112;2023-03-31T04:53:34;10.90;;;3.00;;
6007;SDS011;3032;49.484;11.112;2023-03-31T04:56:00;4.20;;;2.60;;
6007;SDS011;3032;49.484;11.112;2023-03-31T04:58:26;5.10;;;2.40;;
6007;SDS011;3032;49.484;11.112;2023-03-31T05:00:51;4.40;;;2.27;;
6007;SDS011;3032;49.484;11.112;2023-03-31T05:03:18;4.97;;;3.10;;
6007;SDS011;3032;49.484;11.112;2023-03-31T05:05:43;8.35;;;3.00;;
6007;SDS011;3032;49.484;11.112;2023-03-31T05:08:09;4.57;;;3.33;;
6007;SDS011;3032;49.484;11.112;2023-03-31T05:10:35;6.60;;;3.50;;
6007;SDS011;3032;49.484;11.112;2023-03-31T05:13:00;8.40;;;4.10;;
6007;SDS011;3032;49.484;11.112;2023-03-31T05:15:26;8.30;;;3.90;;
6007;SDS011;3032;49.484;11.112;2023-03-31T05:17:51;9.70;;;3.37;;
6007;SDS011;3032;49.484;11.112;2023-03-31T05:20:17;7.27;;;2.97;;
6007;SDS011;3032;49.484;11.112;2023-03-31T05:22:45;5.60;;;2.95;;
6007;SDS011;3032;49.484;11.112;2023-03-31T05:25:12;11.75;;;3.42;;
6007;SDS011;3032;49.484;11.112;2023-03-31T05:27:43;6.32;;;2.78;;
6007;SDS011;3032;49.484;11.112;2023-03-31T05:30:11;7.75;;;3.30;;
6007;SDS011;3032;49.484;11.112;2023-03-31T05:32:37;8.75;;;3.60;;
6007;SDS011;3032;49.484;11.112;2023-03-31T05:35:02;10.07;;;2.80;;
6007;SDS011;3032;49.484;11.112;2023-03-31T05:37:28;12.40;;;3.00;;
6007;SDS011;3032;49.484;11.112;2023-03-31T05:39:54;6.87;;;2.80;;
6007;SDS011;3032;49.484;11.112;2023-03-31T05:42:20;5.93;;;3.23;;
6007;SDS011;3032;49.484;11.112;2023-03-31T05:44:45;7.33;;;3.07;;
6007;SDS011;3032;49.484;11.112;2023-03-31T05:47:11;6.23;;;2.87;;
6007;SDS011;3032;49.484;11.112;2023-03-31T05:49:36;8.13;;;3.53;;
6007;SDS011;3032;49.484;11.112;2023-03-31T05:52:03;8.90;;;3.20;;
6007;SDS011;3032;49.484;11.112;2023-03-31T05:54:30;6.78;;;3.20;;
6007;SDS011;3032;49.484;11.112;2023-03-31T05:56:56;5.87;;;3.17;;
6007;SDS011;3032;49.484;11.112;2023-03-31T05:59:21;5.00;;;3.00;;
6007;SDS011;3032;49.484;11.112;2023-03-31T06:01:47;5.93;;;3.07;;
6007;SDS011;3032;49.484;11.112;2023-03-31T06:04:12;7.03;;;3.00;;
6007;SDS011;3032;49.484;11.112;2023-03-31T06:06:38;7.00;;;3.00;;
6007;SDS011;3032;49.484;11.112;2023-03-31T06:09:04;6.50;;;2.70;;
6007;SDS011;3032;49.484;11.112;2023-03-31T06:11:30;5.10;;;3.20;;
6007;SDS011;3032;49.484;11.112;2023-03-31T06:13:56;5.47;;;2.37;;
6007;SDS011;3032;49.484;11.112;2023-03-31T06:16:21;8.07;;;3.20;;
6007;SDS011;3032;49.484;11.112;2023-03-31T06:18:47;11.00;;;3.20;;
6007;SDS011;3032;49.484;11.112;2023-03-31T06:21:15;8.55;;;3.40;;
6007;SDS011;3032;49.484;11.112;2023-03-31T06:23:42;10.93;;;3.40;;
6007;SDS011;3032;49.484;11.112;2023-03-31T06:26:10;8.73;;;3.80;;
6007;SDS011;3032;49.484;11.112;2023-03-31T06:28:46;5.13;;;3.00;;
6007;SDS011;3032;49.484;11.112;2023-03-31T06:31:14;4.00;;;3.03;;
6007;SDS011;3032;49.484;11.112;2023-03-31T06:33:41;6.85;;;3.05;;
6007;SDS011;3032;49.484;11.112;2023-03-31T06:36:08;5.40;;;2.80;;
6007;SDS011;3032;49.484;11.112;2023-03-31T06:38:34;9.35;;;3.53;;
6007;SDS011;3032;49.484;11.112;2023-03-31T06:41:04;8.38;;;3.20;;
6007;SDS011;3032;49.484;11.112;2023-03-31T06:43:31;11.18;;;3.40;;
6007;SDS011;3032;49.484;11.112;2023-03-31T06:45:57;9.53;;;3.30;;
6007;SDS011;3032;49.484;11.112;2023-03-31T06:48:22;8.40;;;3.03;;
6007;SDS011;3032;49.484;11.112;2023-03-31T06:50:49;5.25;;;2.97;;
6007;SDS011;3032;49.484;11.112;2023-03-31T06:53:15;9.95;;;3.33;;
6007;SDS011;3032;49.484;11.112;2023-03-31T06:55:40;3.83;;;3.00;;
6007;SDS011;3032;49.484;11.112;2023-03-31T06:58:06;6.30;;;3.57;;
6007;SDS011;3032;49.484;11.112;2023-03-31T07:00:31;8.30;;;3.40;;
6007;SDS011;3032;49.484;11.112;2023-03-31T07:02:57;13.02;;;3.80;;
6007;SDS011;3032;49.484;11.112;2023-03-31T07:05:23;12.63;;;3.95;;
6007;SDS011;3032;49.484;11.112;2023-03-31T07:07:56;9.05;;;3.75;;
6007;SDS011;3032;49.484;11.112;2023-03-31T07:10:24;9.77;;;4.00;;
6007;SDS011;3032;49.484;11.112;2023-03-31T07:12:50;8.85;;;4.53;;
6007;SDS011;3032;49.484;11.112;2023-03-31T07:15:16;15.17;;;5.00;;
6007;SDS011;3032;49.484;11.112;2023-03-31T07:17:42;10.23;;;4.57;;
6007;SDS011;3032;49.484;11.112;2023-03-31T07:20:08;13.07;;;4.63;;
6007;SDS011;3032;49.484;11.112;2023-03-31T07:22:41;11.88;;;4.72;;
6007;SDS011;3032;49.484;11.112;2023-03-31T07:25:08;7.10;;;4.68;;
6007;SDS011;3032;49.484;11.112;2023-03-31T07:27:35;16.80;;;5.95;;
6007;SDS011;3032;49.484;11.112;2023-03-31T07:30:08;9.82;;;5.20;;
6007;SDS011;3032;49.484;11.112;2023-03-31T07:32:36;10.60;;;5.03;;
6007;SDS011;3032;49.484;11.112;2023-03-31T07:35:04;10.77;;;5.82;;
6007;SDS011;3032;49.484;11.112;2023-03-31T07:37:34;11.25;;;5.45;;
6007;SDS011;3032;49.484;11.112;2023-03-31T07:40:05;7.47;;;4.72;;
6007;SDS011;3032;49.484;11.112;2023-03-31T07:42:32;9.30;;;5.65;;
6007;SDS011;3032;49.484;11.112;2023-03-31T07:44:58;10.63;;;6.32;;
6007;SDS011;3032;49.484;11.112;2023-03-31T07:47:24;10.57;;;6.03;;
6007;SDS011;3032;49.484;11.112;2023-03-31T07:49:50;10.40;;;6.60;;
6007;SDS011;3032;49.484;11.112;2023-03-31T07:52:16;10.80;;;5.77;;
6007;SDS011;3032;49.484;11.112;2023-03-31T07:54:43;12.30;;;5.90;;
6007;SDS011;3032;49.484;11.112;2023-03-31T07:57:09;11.35;;;7.03;;
6007;SDS011;3032;49.484;11.112;2023-03-31T07:59:35;13.50;;;6.40;;
6007;SDS011;3032;49.484;11.112;2023-03-31T08:02:01;14.07;;;6.20;;
6007;SDS011;3032;49.484;11.112;2023-03-31T08:04:26;16.57;;;7.97;;
6007;SDS011;3032;49.484;11.112;2023-03-31T08:06:52;13.40;;;6.37;;
6007;SDS011;3032;49.484;11.112;2023-03-31T08:09:18;11.57;;;6.90;;
6007;SDS011;3032;49.484;11.112;2023-03-31T08:11:44;14.13;;;7.25;;
6007;SDS011;3032;49.484;11.112;2023-03-31T08:14:10;14.30;;;7.57;;
6007;SDS011;3032;49.484;11.112;2023-03-31T08:16:35;15.37;;;8.33;;
6007;SDS011;3032;49.484;11.112;2023-03-31T08:19:01;13.37;;;7.43;;
6007;SDS011;3032;49.484;11.112;2023-03-31T08:21:27;21.20;;;7.57;;
6007;SDS011;3032;49.484;11.112;2023-03-31T08:23:53;23.05;;;8.80;;
6007;SDS011;3032;49.484;11.112;2023-03-31T08:26:20;13.02;;;8.25;;
6007;SDS011;3032;49.484;11.112;2023-03-31T08:28:48;17.63;;;9.13;;
6007;SDS011;3032;49.484;11.112;2023-03-31T08:31:14;18.20;;;9.40;;
6007;SDS011;3032;49.484;11.112;2023-03-31T08:33:41;21.30;;;9.75;;
6007;SDS011;3032;49.484;11.112;2023-03-31T08:36:07;20.37;;;10.13;;
6007;SDS011;3032;49.484;11.112;2023-03-31T08:38:37;17.42;;;10.10;;
6007;SDS011;3032;49.484;11.112;2023-03-31T08:41:29;21.00;;;9.27;;
6007;SDS011;3032;49.484;11.112;2023-03-31T08:44:14;16.40;;;8.73;;
6007;SDS011;3032;49.484;11.112;2023-03-31T08:46:46;17.27;;;8.75;;
6007;SDS011;3032;49.484;11.112;2023-03-31T08:49:15;15.68;;;9.07;;
6007;SDS011;3032;49.484;11.112;2023-03-31T08:51:48;15.52;;;6.35;;
6007;SDS011;3032;49.484;11.112;2023-03-31T08:54:18;13.68;;;7.30;;
6007;SDS011;3032;49.484;11.112;2023-03-31T08:56:46;11.02;;;7.40;;
6007;SDS011;3032;49.484;11.112;2023-03-31T08:59:35;12.95;;;6.47;;
6007;SDS011;3032;49.484;11.112;2023-03-31T09:02:15;9.77;;;6.78;;
6007;SDS011;3032;49.484;11.112;2023-03-31T09:10:15;10.20;;;6.93;;
6007;SDS011;3032;49.484;11.112;2023-03-31T09:13:01;14.90;;;7.65;;
6007;SDS011;3032;49.484;11.112;2023-03-31T09:15:43;8.20;;;6.43;;
6007;SDS011;3032;49.484;11.112;2023-03-31T09:18:35;8.80;;;6.65;;
6007;SDS011;3032;49.484;11.112;2023-03-31T09:21:09;7.90;;;6.40;;
6007;SDS011;3032;49.484;11.112;2023-03-31T09:29:12;9.45;;;5.65;;
6007;SDS011;3032;49.484;11.112;2023-03-31T09:31:43;12.68;;;5.97;;
6007;SDS011;3032;49.484;11.112;2023-03-31T09:34:12;9.63;;;5.32;;
6007;SDS011;3032;49.484;11.112;2023-03-31T09:36:46;5.85;;;5.07;;
6007;SDS011;3032;49.484;11.112;2023-03-31T09:39:12;10.40;;;5.40;;
6007;SDS011;3032;49.484;11.112;2023-03-31T09:41:41;6.13;;;4.20;;
6007;SDS011;3032;49.484;11.112;2023-03-31T09:44:21;6.65;;;4.82;;
6007;SDS011;3032;49.484;11.112;2023-03-31T09:46:50;9.55;;;5.53;;
6007;SDS011;3032;49.484;11.112;2023-03-31T09:49:19;8.10;;;5.63;;
6007;SDS011;3032;49.484;11.112;2023-03-31T09:51:48;6.10;;;5.50;;
6007;SDS011;3032;49.484;11.112;2023-03-31T09:54:26;8.20;;;5.13;;
6007;SDS011;3032;49.484;11.112;2023-03-31T09:56:58;4.88;;;4.35;;
6007;SDS011;3032;49.484;11.112;2023-03-31T09:59:31;5.70;;;4.30;;
6007;SDS011;3032;49.484;11.112;2023-03-31T10:02:01;5.90;;;4.55;;
6007;SDS011;3032;49.484;11.112;2023-03-31T10:04:31;3.90;;;3.30;;
6007;SDS011;3032;49.484;11.112;2023-03-31T10:06:59;3.92;;;3.00;;
6007;SDS011;3032;49.484;11.112;2023-03-31T10:09:31;4.15;;;2.90;;
6007;SDS011;3032;49.484;11.112;2023-03-31T10:12:00;2.92;;;2.40;;
6007;SDS011;3032;49.484;11.112;2023-03-31T10:14:32;5.32;;;3.50;;
6007;SDS011;3032;49.484;11.112;2023-03-31T10:17:05;3.10;;;2.90;;
6007;SDS011;3032;49.484;11.112;2023-03-31T10:19:34;2.92;;;2.50;;
6007;SDS011;3032;49.484;11.112;2023-03-31T10:22:26;8.90;;;4.18;;
6007;SDS011;3032;49.484;11.112;2023-03-31T10:24:52;4.78;;;2.97;;
6007;SDS011;3032;49.484;11.112;2023-03-31T10:27:22;4.25;;;3.13;;
6007;SDS011;3032;49.484;11.112;2023-03-31T10:29:54;2.83;;;2.60;;
6007;SDS011;3032;49.484;11.112;2023-03-31T10:34:52;3.55;;;2.67;;
6007;SDS011;3032;49.484;11.112;2023-03-31T10:37:21;4.03;;;2.70;;
6007;SDS011;3032;49.484;11.112;2023-03-31T10:40:34;6.38;;;2.88;;
6007;SDS011;3032;49.484;11.112;2023-03-31T10:42:39;3.38;;;2.63;;
6007;SDS011;3032;49.484;11.112;2023-03-31T10:45:12;3.95;;;2.00;;
6007;SDS011;3032;49.484;11.112;2023-03-31T10:47:47;4.60;;;2.50;;
6007;SDS011;3032;49.484;11.112;2023-03-31T10:50:14;7.00;;;2.85;;
6007;SDS011;3032;49.484;11.112;2023-03-31T10:52:44;8.43;;;2.03;;
6007;SDS011;3032;49.484;11.112;2023-03-31T10:55:11;6.68;;;2.60;;
6007;SDS011;3032;49.484;11.112;2023-03-31T11:00:26;3.40;;;2.03;;
6007;SDS011;3032;49.484;11.112;2023-03-31T11:03:00;2.97;;;2.22;;
6007;SDS011;3032;49.484;11.112;2023-03-31T11:18:44;4.35;;;2.90;;
6007;SDS011;3032;49.484;11.112;2023-03-31T11:35:29;7.35;;;2.00;;
6007;SDS011;3032;49.484;11.112;2023-03-31T11:46:12;6.05;;;1.75;;
6007;SDS011;3032;49.484;11.112;2023-03-31T11:49:01;6.95;;;1.85;;
6007;SDS011;3032;49.484;11.112;2023-03-31T11:51:52;1.73;;;1.40;;
6007;SDS011;3032;49.484;11.112;2023-03-31T11:57:21;3.90;;;1.50;;
6007;SDS011;3032;49.484;11.112;2023-03-31T11:59:50;3.72;;;2.00;;
6007;SDS011;3032;49.484;11.112;2023-03-31T12:02:32;8.13;;;2.22;;
6007;SDS011;3032;49.484;11.112;2023-03-31T12:05:20;2.92;;;2.63;;
6007;SDS011;3032;49.484;11.112;2023-03-31T12:08:00;5.72;;;1.90;;
6007;SDS011;3032;49.484;11.112;2023-03-31T12:10:35;3.92;;;2.00;;
6007;SDS011;3032;49.484;11.112;2023-03-31T12:16:04;1.90;;;1.65;;
6007;SDS011;3032;49.484;11.112;2023-03-31T12:18:37;4.90;;;1.92;;
6007;SDS011;3032;49.484;11.112;2023-03-31T12:21:08;5.65;;;1.88;;
6007;SDS011;3032;49.484;11.112;2023-03-31T12:23:40;1.50;;;1.40;;
6007;SDS011;3032;49.484;11.112;2023-03-31T12:28:55;4.20;;;1.40;;
6007;SDS011;3032;49.484;11.112;2023-03-31T12:31:24;2.90;;;1.38;;
6007;SDS011;3032;49.484;11.112;2023-03-31T12:34:02;1.38;;;1.00;;
6007;SDS011;3032;49.484;11.112;2023-03-31T12:36:36;2.40;;;1.20;;
6007;SDS011;3032;49.484;11.112;2023-03-31T12:47:26;1.13;;;1.13;;
6007;SDS011;3032;49.484;11.112;2023-03-31T12:50:24;2.42;;;1.00;;
6007;SDS011;3032;49.484;11.112;2023-03-31T12:55:54;2.75;;;1.00;;
6007;SDS011;3032;49.484;11.112;2023-03-31T13:05:58;2.93;;;1.33;;
6007;SDS011;3032;49.484;11.112;2023-03-31T13:16:40;3.60;;;1.30;;
6007;SDS011;3032;49.484;11.112;2023-03-31T13:19:05;1.87;;;0.83;;
6007;SDS011;3032;49.484;11.112;2023-03-31T13:21:52;2.25;;;1.00;;
6007;SDS011;3032;49.484;11.112;2023-03-31T13:24:22;2.35;;;1.00;;
6007;SDS011;3032;49.484;11.112;2023-03-31T13:26:49;4.63;;;1.45;;
6007;SDS011;3032;49.484;11.112;2023-03-31T13:35:13;1.38;;;1.20;;
6007;SDS011;3032;49.484;11.112;2023-03-31T13:51:59;1.85;;;1.40;;
6007;SDS011;3032;49.484;11.112;2023-03-31T13:57:53;1.52;;;1.10;;
6007;SDS011;3032;49.484;11.112;2023-03-31T14:03:45;2.35;;;1.80;;
6007;SDS011;3032;49.484;11.112;2023-03-31T14:08:51;3.30;;;1.65;;
6007;SDS011;3032;49.484;11.112;2023-03-31T14:11:30;1.90;;;1.80;;
6007;SDS011;3032;49.484;11.112;2023-03-31T14:14:06;2.25;;;1.60;;
6007;SDS011;3032;49.484;11.112;2023-03-31T14:16:37;3.58;;;1.90;;
6007;SDS011;3032;49.484;11.112;2023-03-31T14:24:43;3.10;;;1.77;;
6007;SDS011;3032;49.484;11.112;2023-03-31T14:30:34;2.40;;;1.70;;
6007;SDS011;3032;49.484;11.112;2023-03-31T14:35:43;2.92;;;1.85;;
6007;SDS011;3032;49.484;11.112;2023-03-31T14:38:20;2.92;;;1.35;;
6007;SDS011;3032;49.484;11.112;2023-03-31T14:40:48;5.30;;;2.10;;
6007;SDS011;3032;49.484;11.112;2023-03-31T14:43:20;5.32;;;1.48;;
6007;SDS011;3032;49.484;11.112;2023-03-31T14:45:55;2.28;;;1.55;;
6007;SDS011;3032;49.484;11.112;2023-03-31T14:48:22;3.90;;;1.70;;
6007;SDS011;3032;49.484;11.112;2023-03-31T14:50:48;1.90;;;0.80;;
6007;SDS011;3032;49.484;11.112;2023-03-31T14:53:16;2.10;;;1.48;;
6007;SDS011;3032;49.484;11.112;2023-03-31T14:55:46;2.55;;;1.20;;
6007;SDS011;3032;49.484;11.112;2023-03-31T14:58:13;1.80;;;1.15;;
6007;SDS011;3032;49.484;11.112;2023-03-31T15:00:48;1.15;;;1.02;;
6007;SDS011;3032;49.484;11.112;2023-03-31T15:03:14;1.23;;;1.10;;
6007;SDS011;3032;49.484;11.112;2023-03-31T15:05:40;2.27;;;0.87;;
6007;SDS011;3032;49.484;11.112;2023-03-31T15:08:11;3.42;;;1.30;;
6007;SDS011;3032;49.484;11.112;2023-03-31T15:10:43;2.38;;;1.55;;
6007;SDS011;3032;49.484;11.112;2023-03-31T15:13:15;6.22;;;1.27;;
6007;SDS011;3032;49.484;11.112;2023-03-31T15:15:44;3.05;;;1.10;;
6007;SDS011;3032;49.484;11.112;2023-03-31T15:18:11;3.47;;;1.10;;
6007;SDS011;3032;49.484;11.112;2023-03-31T15:20:38;5.45;;;1.20;;
6007;SDS011;3032;49.484;11.112;2023-03-31T15:26:05;4.00;;;1.17;;
6007;SDS011;3032;49.484;11.112;2023-03-31T15:28:38;2.45;;;1.48;;
6007;SDS011;3032;49.484;11.112;2023-03-31T15:31:14;1.83;;;0.90;;
6007;SDS011;3032;49.484;11.112;2023-03-31T15:33:40;2.75;;;1.08;;
6007;SDS011;3032;49.484;11.112;2023-03-31T15:36:06;4.80;;;1.60;;
6007;SDS011;3032;49.484;11.112;2023-03-31T15:38:35;1.85;;;1.27;;
6007;SDS011;3032;49.484;11.112;2023-03-31T15:41:00;3.00;;;1.40;;
6007;SDS011;3032;49.484;11.112;2023-03-31T15:43:30;4.03;;;1.57;;
6007;SDS011;3032;49.484;11.112;2023-03-31T15:49:03;2.90;;;1.50;;
6007;SDS011;3032;49.484;11.112;2023-03-31T15:51:34;3.30;;;2.10;;
6007;SDS011;3032;49.484;11.112;2023-03-31T15:54:01;3.42;;;2.50;;
6007;SDS011;3032;49.484;11.112;2023-03-31T15:56:34;3.83;;;1.90;;
6007;SDS011;3032;49.484;11.112;2023-03-31T15:59:20;2.83;;;1.63;;
6007;SDS011;3032;49.484;11.112;2023-03-31T16:01:47;3.03;;;1.30;;
6007;SDS011;3032;49.484;11.112;2023-03-31T16:04:14;2.28;;;1.55;;
6007;SDS011;3032;49.484;11.112;2023-03-31T16:06:42;5.93;;;1.50;;
6007;SDS011;3032;49.484;11.112;2023-03-31T16:09:15;1.30;;;1.20;;
6007;SDS011;3032;49.484;11.112;2023-03-31T16:11:49;2.80;;;1.35;;
6007;SDS011;3032;49.484;11.112;2023-03-31T16:14:23;3.70;;;1.60;;
6007;SDS011;3032;49.484;11.112;2023-03-31T16:16:54;2.90;;;1.92;;
6007;SDS011;3032;49.484;11.112;2023-03-31T16:19:24;2.35;;;1.95;;
6007;SDS011;3032;49.484;11.112;2023-03-31T16:21:54;2.45;;;1.70;;
6007;SDS011;3032;49.484;11.112;2023-03-31T16:24:29;2.50;;;1.48;;
6007;SDS011;3032;49.484;11.112;2023-03-31T16:27:00;6.05;;;2.55;;
6007;SDS011;3032;49.484;11.112;2023-03-31T16:29:30;2.78;;;1.38;;
6007;SDS011;3032;49.484;11.112;2023-03-31T16:34:31;2.67;;;1.45;;
6007;SDS011;3032;49.484;11.112;2023-03-31T16:36:57;1.73;;;1.00;;
6007;SDS011;3032;49.484;11.112;2023-03-31T16:39:22;2.63;;;1.20;;
6007;SDS011;3032;49.484;11.112;2023-03-31T16:41:48;3.60;;;1.30;;
6007;SDS011;3032;49.484;11.112;2023-03-31T16:44:13;3.13;;;1.23;;
6007;SDS011;3032;49.484;11.112;2023-03-31T16:46:39;3.00;;;1.13;;
6007;SDS011;3032;49.484;11.112;2023-03-31T16:49:05;2.07;;;1.30;;
6007;SDS011;3032;49.484;11.112;2023-03-31T16:51:30;1.23;;;0.90;;
6007;SDS011;3032;49.484;11.112;2023-03-31T16:53:56;1.37;;;1.27;;
6007;SDS011;3032;49.484;11.112;2023-03-31T16:56:21;4.80;;;1.77;;
6007;SDS011;3032;49.484;11.112;2023-03-31T16:58:47;2.60;;;1.20;;
6007;SDS011;3032;49.484;11.112;2023-03-31T17:01:13;1.27;;;1.00;;
6007;SDS011;3032;49.484;11.112;2023-03-31T17:03:38;4.10;;;1.90;;
6007;SDS011;3032;49.484;11.112;2023-03-31T17:06:09;3.38;;;1.35;;
6007;SDS011;3032;49.484;11.112;2023-03-31T17:08:36;3.80;;;1.20;;
6007;SDS011;3032;49.484;11.112;2023-03-31T17:11:05;4.15;;;1.60;;
6007;SDS011;3032;49.484;11.112;2023-03-31T17:13:36;5.30;;;2.30;;
6007;SDS011;3032;49.484;11.112;2023-03-31T17:16:03;2.55;;;1.10;;
6007;SDS011;3032;49.484;11.112;2023-03-31T17:18:29;5.22;;;1.33;;
6007;SDS011;3032;49.484;11.112;2023-03-31T17:21:01;4.47;;;2.60;;
6007;SDS011;3032;49.484;11.112;2023-03-31T17:23:28;7.22;;;1.90;;
6007;SDS011;3032;49.484;11.112;2023-03-31T17:25:54;1.80;;;1.40;;
6007;SDS011;3032;49.484;11.112;2023-03-31T17:28:19;3.97;;;1.83;;
6007;SDS011;3032;49.484;11.112;2023-03-31T17:30:45;2.63;;;1.37;;
6007;SDS011;3032;49.484;11.112;2023-03-31T17:33:13;4.32;;;1.50;;
6007;SDS011;3032;49.484;11.112;2023-03-31T17:35:40;2.92;;;2.00;;
6007;SDS011;3032;49.484;11.112;2023-03-31T17:38:06;7.93;;;2.20;;
6007;SDS011;3032;49.484;11.112;2023-03-31T17:40:33;2.75;;;2.13;;
6007;SDS011;3032;49.484;11.112;2023-03-31T17:42:59;7.03;;;2.83;;
6007;SDS011;3032;49.484;11.112;2023-03-31T17:45:28;9.43;;;4.03;;
6007;SDS011;3032;49.484;11.112;2023-03-31T17:47:56;10.38;;;5.18;;
6007;SDS011;3032;49.484;11.112;2023-03-31T17:50:22;13.15;;;6.35;;
6007;SDS011;3032;49.484;11.112;2023-03-31T17:52:48;8.57;;;4.97;;
6007;SDS011;3032;49.484;11.112;2023-03-31T17:55:13;5.43;;;4.10;;
6007;SDS011;3032;49.484;11.112;2023-03-31T17:57:39;6.07;;;2.80;;
6007;SDS011;3032;49.484;11.112;2023-03-31T18:00:05;4.93;;;3.53;;
6007;SDS011;3032;49.484;11.112;2023-03-31T18:02:36;5.93;;;3.90;;
6007;SDS011;3032;49.484;11.112;2023-03-31T18:05:03;7.13;;;4.20;;
6007;SDS011;3032;49.484;11.112;2023-03-31T18:07:30;9.13;;;3.20;;
6007;SDS011;3032;49.484;11.112;2023-03-31T18:09:56;6.68;;;4.00;;
6007;SDS011;3032;49.484;11.112;2023-03-31T18:12:22;7.10;;;3.30;;
6007;SDS011;3032;49.484;11.112;2023-03-31T18:14:48;6.93;;;3.80;;
6007;SDS011;3032;49.484;11.112;2023-03-31T18:17:14;2.53;;;1.70;;
6007;SDS011;3032;49.484;11.112;2023-03-31T18:19:40;3.23;;;1.73;;
6007;SDS011;3032;49.484;11.112;2023-03-31T18:22:07;4.50;;;3.42;;
6007;SDS011;3032;49.484;11.112;2023-03-31T18:24:32;3.63;;;2.28;;
6007;SDS011;3032;49.484;11.112;2023-03-31T18:26:59;2.13;;;1.70;;